Skip Navigation LinksHome page > Weather > Current weather Skip Navigation Links

Current Weather

William P Hobby, Houston

For information only: do not use for flight planning or navigation.
Latest weather
Observation time Thursday, November 21, 2019 12:53 PM CST
Local time Thursday, November 21, 2019 2:00 PM CST
Flight conditions Visual Meteorological Conditions
Winds
Wind direction South-Southeast (160°)
Wind speed 16 mph
Wind gusting to 24 mph
Visibility 10 mi.
Sky condition
Ceiling 16,000 ft. broken clouds
Cloud layer scattered clouds 2,500 ft.
Cloud layer broken clouds 16,000 ft.
Cloud layer overcast 25,000 ft.
Temperature 78°F
Dewpoint 66°F
Altimeter 29.97 in.Hg
Derived measurements
Relative humidity 67%
Heat index 78°F
Density altitude 1514 ft.
Sea-level pressure 29.98 in.Hg
Remarks
Automated weather observing station with precipitation discriminator.
METAR KHOU 211853Z 16014G21KT 10SM SCT025 BKN160 OVC250 26/19 A2997 RMK AO2 SLP153 T02560189

Settings

Location code

InnerDrive.Weather 4.0.6770.0 Release CLR 4.0.30319.42000
Copyright ©2018 Inner Drive Technology. All rights reserved. Portions Copyright ©1986-2018 David Braverman.

Find weather

Site navigation


Skip Navigation Links

Place info

Page info

PayPal - The safer, easier way to pay online!

Return home.

Copyright ©2019 Inner Drive Technology. Purveyors of fine, hand-crafted computer software. Page printed 2019-11-21T20:00:05 UTC.